Time;durP1;ratioP1;P1;durP2;ratioP2;P2;SDS_P1;SDS_P2;PMS_P1;PMS_P2;Temp;Humidity;BMP_temperature;BMP_pressure;BME280_temperature;BME280_humidity;BME280_pressure;Samples;Min_cycle;Max_cycle;Signal;HPM_P1;HPM_P2
2022/04/30 00:00:00;;;;;;;6.95;4.28;;;23.60;39.20;;;;;;6260558;27;80728;-61
2022/04/30 00:03:01;;;;;;;7.55;4.65;;;23.60;39.20;;;;;;6260298;27;80303;-61
2022/04/30 00:06:01;;;;;;;6.63;4.53;;;23.60;39.80;;;;;;6260548;27;80397;-61
2022/04/30 00:09:02;;;;;;;8.38;4.82;;;23.60;39.20;;;;;;6259682;27;80692;-61
2022/04/30 00:12:02;;;;;;;9.20;4.57;;;23.60;39.20;;;;;;6272978;27;80325;-61
2022/04/30 00:15:03;;;;;;;9.15;4.85;;;23.60;39.10;;;;;;6285476;27;80511;-62
2022/04/30 00:18:03;;;;;;;8.65;4.75;;;23.60;39.10;;;;;;6285070;27;80772;-62
2022/04/30 00:21:05;;;;;;;7.90;4.32;;;23.60;39.10;;;;;;6285448;27;81310;-62
2022/04/30 00:24:05;;;;;;;10.07;4.90;;;23.60;39.10;;;;;;6284262;27;80481;-62
2022/04/30 00:27:06;;;;;;;8.07;4.50;;;23.60;39.10;;;;;;6263956;27;80785;-62
2022/04/30 00:30:06;;;;;;;6.18;3.85;;;23.60;39.00;;;;;;6261259;27;81668;-63
2022/04/30 00:33:09;;;;;;;9.82;5.25;;;23.60;39.00;;;;;;6285488;27;80378;-62
2022/04/30 00:36:10;;;;;;;6.72;4.07;;;23.60;39.00;;;;;;6284731;27;80583;-62
2022/04/30 00:39:10;;;;;;;7.75;4.03;;;23.60;39.10;;;;;;6281575;27;80626;-62
2022/04/30 00:42:11;;;;;;;8.07;4.88;;;23.60;39.00;;;;;;6259490;27;80486;-61
2022/04/30 00:45:12;;;;;;;7.93;4.53;;;23.60;38.90;;;;;;6258029;27;80523;-61
2022/04/30 00:48:12;;;;;;;6.78;4.22;;;23.60;38.90;;;;;;6259583;27;80822;-61
2022/04/30 00:51:13;;;;;;;9.18;4.60;;;23.60;38.90;;;;;;6259149;27;80212;-61
2022/04/30 00:54:13;;;;;;;6.60;4.07;;;23.50;38.90;;;;;;6272056;27;80859;-62
2022/04/30 00:57:14;;;;;;;10.05;5.45;;;23.50;38.90;;;;;;6283923;27;81575;-61
2022/04/30 01:00:14;;;;;;;7.47;4.78;;;23.50;38.80;;;;;;6284339;27;81451;-61
2022/04/30 01:03:30;;;;;;;7.83;3.83;;;23.60;38.90;;;;;;6282755;27;83318;-61
2022/04/30 01:06:39;;;;;;;7.57;4.25;;;23.50;38.90;;;;;;6284527;27;80358;-62
2022/04/30 01:09:40;;;;;;;8.70;4.47;;;23.50;38.90;;;;;;6257904;27;80961;-62
2022/04/30 01:12:40;;;;;;;7.38;4.57;;;23.50;38.80;;;;;;6258886;27;80280;-62
2022/04/30 01:15:41;;;;;;;8.93;5.00;;;23.50;38.80;;;;;;6259071;27;81038;-62
2022/04/30 01:18:41;;;;;;;8.60;4.75;;;23.50;38.70;;;;;;6258697;27;80681;-61
2022/04/30 01:21:42;;;;;;;9.45;4.93;;;23.50;38.80;;;;;;6258805;27;80985;-62
2022/04/30 01:24:43;;;;;;;6.70;3.80;;;23.50;38.70;;;;;;6258854;27;80100;-62
2022/04/30 01:27:44;;;;;;;7.38;4.25;;;23.50;38.80;;;;;;6272053;27;81203;-62
2022/04/30 01:30:44;;;;;;;7.45;4.60;;;23.50;38.80;;;;;;6282731;27;80320;-61
2022/04/30 01:37:23;;;;;;;11.90;5.40;;;23.50;38.70;;;;;;6283212;27;80622;-62
2022/04/30 01:40:23;;;;;;;8.02;4.93;;;23.50;38.70;;;;;;6283357;27;80392;-62
2022/04/30 01:43:24;;;;;;;8.75;4.57;;;23.50;38.60;;;;;;6283265;27;87760;-62
2022/04/30 01:46:24;;;;;;;10.10;5.15;;;23.50;38.80;;;;;;6269338;27;85456;-63
2022/04/30 01:49:25;;;;;;;9.15;5.22;;;23.50;38.70;;;;;;6258099;27;80411;-63
2022/04/30 01:52:25;;;;;;;11.30;6.03;;;23.50;38.70;;;;;;6257852;27;80452;-63
2022/04/30 01:55:26;;;;;;;10.43;6.68;;;23.50;38.70;;;;;;6257745;27;80913;-62
2022/04/30 01:58:34;;;;;;;12.27;6.63;;;23.50;38.60;;;;;;6258206;27;80471;-63
2022/04/30 02:01:35;;;;;;;11.30;6.25;;;23.50;38.60;;;;;;6258059;27;80332;-63
2022/04/30 02:04:35;;;;;;;7.68;5.07;;;23.50;38.60;;;;;;6257647;27;80691;-63
2022/04/30 02:07:38;;;;;;;12.43;5.97;;;23.50;38.60;;;;;;6275312;27;80910;-63
2022/04/30 02:10:39;;;;;;;9.50;6.00;;;23.50;38.60;;;;;;6283012;27;80458;-64
2022/04/30 02:13:40;;;;;;;11.48;5.95;;;23.50;38.60;;;;;;6283088;27;80758;-63
2022/04/30 02:16:41;;;;;;;10.57;5.85;;;23.50;38.50;;;;;;6281570;27;80628;-62
2022/04/30 02:23:03;;;;;;;10.57;5.82;;;23.50;38.50;;;;;;6264244;27;80060;-62
2022/04/30 02:26:04;;;;;;;8.90;5.78;;;23.40;38.40;;;;;;6282165;27;80397;-62
2022/04/30 02:29:07;;;;;;;11.65;5.43;;;23.50;38.60;;;;;;6282945;27;80191;-63
2022/04/30 02:32:07;;;;;;;9.95;5.22;;;23.50;38.60;;;;;;6273938;27;80038;-63
2022/04/30 02:35:08;;;;;;;12.85;5.97;;;23.40;38.60;;;;;;6262811;27;80575;-63
2022/04/30 02:38:09;;;;;;;9.35;5.47;;;23.40;38.50;;;;;;6257513;27;80646;-63
2022/04/30 02:41:11;;;;;;;8.35;5.18;;;23.40;38.50;;;;;;6239352;27;83242;-63
2022/04/30 02:44:11;;;;;;;12.32;5.93;;;23.40;38.50;;;;;;6257046;27;80434;-62
2022/04/30 02:47:13;;;;;;;11.43;5.60;;;23.40;38.50;;;;;;6256433;27;80484;-64
2022/04/30 02:50:13;;;;;;;9.00;5.63;;;23.40;38.70;;;;;;6256937;27;80881;-63
2022/04/30 02:53:14;;;;;;;10.43;6.32;;;23.40;39.10;;;;;;6257097;27;80972;-63
2022/04/30 02:56:14;;;;;;;10.63;5.57;;;23.40;39.10;;;;;;6256994;27;80530;-63
2022/04/30 03:02:38;;;;;;;7.40;5.10;;;23.40;39.10;;;;;;6254796;27;81761;-63
2022/04/30 03:05:43;;;;;;;10.38;5.22;;;23.40;39.10;;;;;;6256673;27;81094;-63
2022/04/30 03:08:44;;;;;;;9.63;5.68;;;23.40;39.10;;;;;;6256339;27;80649;-63
2022/04/30 03:11:44;;;;;;;8.85;5.22;;;23.40;39.00;;;;;;6257181;27;80194;-63
2022/04/30 03:14:45;;;;;;;9.18;5.55;;;23.40;38.90;;;;;;6257105;27;80310;-64
2022/04/30 03:24:27;;;;;;;9.63;5.22;;;23.40;39.00;;;;;;6282289;27;80506;-64
2022/04/30 03:27:27;;;;;;;7.53;5.30;;;23.40;39.10;;;;;;6281281;27;81606;-64
2022/04/30 03:30:28;;;;;;;8.45;5.35;;;23.40;39.00;;;;;;6268250;27;80641;-63
2022/04/30 03:33:29;;;;;;;9.38;5.65;;;23.40;39.10;;;;;;6256512;27;80571;-63
2022/04/30 03:36:29;;;;;;;7.88;4.85;;;23.40;39.10;;;;;;6260708;27;80818;-64
2022/04/30 03:39:30;;;;;;;8.90;5.10;;;23.40;39.20;;;;;;6256684;27;80329;-64
2022/04/30 03:42:31;;;;;;;10.82;5.13;;;23.40;39.20;;;;;;6255094;28;80338;-64
2022/04/30 03:45:31;;;;;;;8.55;5.82;;;23.40;39.40;;;;;;6256283;27;81543;-64
2022/04/30 03:48:32;;;;;;;9.45;5.30;;;23.40;39.40;;;;;;6256728;27;81867;-64
2022/04/30 03:51:33;;;;;;;7.43;4.95;;;23.40;39.50;;;;;;6256776;27;80313;-64
2022/04/30 03:54:33;;;;;;;15.57;5.55;;;23.40;39.50;;;;;;6256128;27;81654;-63
2022/04/30 03:57:33;;;;;;;8.07;5.32;;;23.40;39.70;;;;;;6273107;27;80543;-64
2022/04/30 04:00:34;;;;;;;8.00;5.70;;;23.40;39.40;;;;;;6274463;27;80523;-64
2022/04/30 04:03:36;;;;;;;9.18;5.35;;;23.40;39.60;;;;;;6285774;27;80787;-63
2022/04/30 04:06:36;;;;;;;11.13;5.93;;;23.40;39.60;;;;;;6285756;27;80304;-64
2022/04/30 04:09:37;;;;;;;11.55;5.57;;;23.40;39.60;;;;;;6285026;27;80472;-63
2022/04/30 04:12:37;;;;;;;9.13;4.80;;;23.40;39.60;;;;;;6285311;27;80576;-64
2022/04/30 04:18:57;;;;;;;8.70;5.28;;;23.40;39.50;;;;;;6269105;27;81516;-65
2022/04/30 04:21:58;;;;;;;8.60;5.55;;;23.50;39.70;;;;;;6270279;27;80451;-68
2022/04/30 04:28:18;;;;;;;10.20;5.80;;;23.50;39.90;;;;;;6278451;27;81698;-64
2022/04/30 04:31:22;;;;;;;10.43;5.55;;;23.50;39.80;;;;;;6284959;27;80408;-62
2022/04/30 04:34:22;;;;;;;8.98;5.57;;;23.50;39.90;;;;;;6267071;27;80433;-64
2022/04/30 04:37:23;;;;;;;9.85;6.32;;;23.60;40.10;;;;;;6259752;27;80767;-64
2022/04/30 04:40:23;;;;;;;25.63;11.07;;;23.50;39.80;;;;;;6259785;27;80370;-63
2022/04/30 04:43:24;;;;;;;31.88;13.48;;;23.50;39.80;;;;;;6256435;27;86709;-65
2022/04/30 04:46:24;;;;;;;33.20;15.45;;;23.50;39.80;;;;;;6263401;27;83428;-63
2022/04/30 04:49:25;;;;;;;34.40;15.38;;;23.50;39.80;;;;;;6281446;27;83074;-63
2022/04/30 04:52:25;;;;;;;31.60;13.02;;;23.50;40.60;;;;;;6281248;27;82986;-68
2022/04/30 04:55:26;;;;;;;26.80;13.13;;;23.50;40.90;;;;;;6258078;27;82942;-61
2022/04/30 04:58:26;;;;;;;23.40;11.63;;;23.50;40.50;;;;;;6255902;27;83154;-63
2022/04/30 05:01:27;;;;;;;18.98;9.90;;;23.60;40.60;;;;;;6255483;27;82876;-61
2022/04/30 05:04:27;;;;;;;22.02;10.48;;;23.60;41.00;;;;;;6258681;27;83037;-61
2022/04/30 05:07:28;;;;;;;22.45;10.23;;;23.60;40.80;;;;;;6255259;27;82943;-62
2022/04/30 05:10:28;;;;;;;19.55;9.15;;;23.60;41.10;;;;;;6254339;27;83019;-62
2022/04/30 05:13:29;;;;;;;18.10;8.80;;;23.60;41.30;;;;;;6258450;27;84043;-63
2022/04/30 05:16:29;;;;;;;19.23;8.35;;;23.60;41.20;;;;;;6281573;27;80489;-62
2022/04/30 05:19:30;;;;;;;15.90;8.23;;;23.70;41.60;;;;;;6263778;27;83704;-61
2022/04/30 05:22:31;;;;;;;15.65;8.88;;;23.70;41.60;;;;;;6258376;27;80348;-62
2022/04/30 05:25:31;;;;;;;16.42;9.23;;;23.70;41.70;;;;;;6270561;27;80770;-62
2022/04/30 05:28:32;;;;;;;19.27;8.30;;;23.70;41.90;;;;;;6267488;27;80372;-62
2022/04/30 05:31:32;;;;;;;18.10;8.40;;;23.80;42.10;;;;;;6268631;27;82206;-62
2022/04/30 05:34:33;;;;;;;19.23;8.38;;;23.80;41.90;;;;;;6262760;27;81314;-61
2022/04/30 05:37:33;;;;;;;17.35;8.48;;;23.80;41.80;;;;;;6262569;27;80639;-62
2022/04/30 05:40:34;;;;;;;17.67;8.50;;;23.80;41.90;;;;;;6260500;27;86425;-62
2022/04/30 05:43:36;;;;;;;21.35;8.60;;;23.90;41.90;;;;;;6260492;27;81692;-65
2022/04/30 05:46:36;;;;;;;14.80;7.40;;;23.90;41.90;;;;;;6266134;27;80392;-60
2022/04/30 05:49:37;;;;;;;14.75;7.90;;;23.90;41.90;;;;;;6272489;27;81499;-61
2022/04/30 05:52:37;;;;;;;12.57;7.65;;;23.90;41.90;;;;;;6264329;27;83530;-61
2022/04/30 05:55:39;;;;;;;14.02;7.85;;;23.90;41.80;;;;;;6273585;27;80704;-61
2022/04/30 05:58:40;;;;;;;13.13;7.63;;;23.90;41.70;;;;;;6261274;27;80283;-63
2022/04/30 06:01:40;;;;;;;13.88;7.75;;;23.90;41.70;;;;;;6265162;27;81108;-61
2022/04/30 06:04:42;;;;;;;17.23;8.38;;;23.90;41.60;;;;;;6277349;27;80701;-62
2022/04/30 06:07:42;;;;;;;14.50;7.78;;;23.90;41.70;;;;;;6266001;27;80469;-62
2022/04/30 06:10:43;;;;;;;15.15;7.50;;;23.90;41.40;;;;;;6278686;27;80342;-62
2022/04/30 06:13:44;;;;;;;15.73;7.80;;;23.90;41.50;;;;;;6262351;27;81484;-63
2022/04/30 06:16:44;;;;;;;13.48;7.60;;;23.90;41.30;;;;;;6260604;27;81341;-62
2022/04/30 06:19:45;;;;;;;18.90;8.05;;;23.90;41.30;;;;;;6259124;27;81211;-62
2022/04/30 06:22:45;;;;;;;16.92;8.05;;;23.90;41.30;;;;;;6255485;27;81447;-63
2022/04/30 06:25:46;;;;;;;12.73;7.65;;;23.90;41.30;;;;;;6262476;27;80273;-62
2022/04/30 06:28:46;;;;;;;14.73;7.70;;;24.00;41.30;;;;;;6264424;27;80841;-62
2022/04/30 06:31:47;;;;;;;14.38;8.27;;;24.00;41.20;;;;;;6265243;27;80783;-63
2022/04/30 06:34:47;;;;;;;19.52;8.18;;;24.00;41.20;;;;;;6269952;27;81351;-63
2022/04/30 06:37:48;;;;;;;14.23;7.70;;;24.10;41.40;;;;;;6261007;27;80751;-63
2022/04/30 06:40:49;;;;;;;19.60;8.38;;;24.00;41.90;;;;;;6261232;27;80328;-64
2022/04/30 06:43:52;;;;;;;19.02;8.77;;;24.00;41.90;;;;;;6275565;27;80702;-62
2022/04/30 06:46:53;;;;;;;17.42;9.05;;;24.10;41.60;;;;;;6256637;27;80943;-64
2022/04/30 06:49:53;;;;;;;17.52;8.70;;;24.10;41.70;;;;;;6261157;27;80467;-62
2022/04/30 06:59:36;;;;;;;13.40;7.82;;;24.10;41.20;;;;;;6256926;27;80829;-63
2022/04/30 07:02:37;;;;;;;16.50;7.97;;;24.10;40.90;;;;;;6254910;27;81404;-62
2022/04/30 07:05:37;;;;;;;22.60;8.15;;;24.10;40.90;;;;;;6273173;27;80786;-63
2022/04/30 07:08:38;;;;;;;19.98;7.57;;;24.10;40.80;;;;;;6261733;27;80472;-63
2022/04/30 07:11:39;;;;;;;14.10;7.00;;;24.10;40.90;;;;;;6271561;27;81485;-63
2022/04/30 07:14:40;;;;;;;12.95;6.90;;;24.10;40.80;;;;;;6275445;27;80791;-63
2022/04/30 07:17:40;;;;;;;15.68;7.22;;;24.20;40.70;;;;;;6269733;27;81076;-63
2022/04/30 07:20:42;;;;;;;17.65;8.23;;;24.10;40.50;;;;;;6267503;27;80657;-63
2022/04/30 07:23:43;;;;;;;12.88;6.63;;;24.10;40.40;;;;;;6281213;27;80457;-63
2022/04/30 07:26:43;;;;;;;12.82;6.97;;;24.10;40.30;;;;;;6274627;27;80482;-63
2022/04/30 07:29:44;;;;;;;13.18;6.85;;;24.20;40.20;;;;;;6268738;27;80995;-63
2022/04/30 07:32:44;;;;;;;11.68;7.15;;;24.20;40.10;;;;;;6263071;27;80784;-63
2022/04/30 07:35:45;;;;;;;11.85;6.30;;;24.20;40.00;;;;;;6261822;27;80461;-62
2022/04/30 07:38:45;;;;;;;17.42;7.05;;;24.20;40.20;;;;;;6270314;27;80518;-63
2022/04/30 07:41:46;;;;;;;12.55;6.60;;;24.20;40.10;;;;;;6273017;27;80463;-62
2022/04/30 07:44:46;;;;;;;12.80;6.78;;;24.20;40.30;;;;;;6260661;27;81448;-63
2022/04/30 07:47:48;;;;;;;11.98;6.15;;;24.20;40.30;;;;;;6263128;27;80797;-63
2022/04/30 07:50:48;;;;;;;14.20;6.65;;;24.20;40.30;;;;;;6264850;27;80609;-62
2022/04/30 07:53:49;;;;;;;11.38;6.18;;;24.20;40.30;;;;;;6268016;27;82944;-63
2022/04/30 07:56:49;;;;;;;12.10;6.25;;;24.20;40.40;;;;;;6263054;27;80564;-64
2022/04/30 07:59:50;;;;;;;12.07;6.43;;;24.20;40.20;;;;;;6265600;27;80547;-64
2022/04/30 08:02:51;;;;;;;10.48;6.15;;;24.20;40.20;;;;;;6272406;27;80939;-64
2022/04/30 08:05:51;;;;;;;9.77;6.30;;;24.20;40.20;;;;;;6261122;27;80332;-63
2022/04/30 08:08:52;;;;;;;13.02;6.38;;;24.30;40.10;;;;;;6262183;27;80421;-63
2022/04/30 08:11:52;;;;;;;13.40;6.95;;;24.30;40.10;;;;;;6267507;27;80448;-64
2022/04/30 08:14:53;;;;;;;14.23;5.90;;;24.30;40.10;;;;;;6285437;27;80403;-64
2022/04/30 08:17:53;;;;;;;14.13;6.55;;;24.30;39.80;;;;;;6285623;27;80395;-63
2022/04/30 08:20:54;;;;;;;11.02;5.75;;;24.30;40.00;;;;;;6280159;27;82168;-64
2022/04/30 08:23:55;;;;;;;15.07;6.00;;;24.30;39.90;;;;;;6260712;27;80773;-63
2022/04/30 08:26:56;;;;;;;12.00;6.20;;;24.30;39.90;;;;;;6260622;27;80576;-63
2022/04/30 08:29:57;;;;;;;10.63;5.50;;;24.30;39.90;;;;;;6259981;27;80383;-64
2022/04/30 08:32:57;;;;;;;10.73;5.85;;;24.30;39.90;;;;;;6260446;27;80343;-66
2022/04/30 08:35:58;;;;;;;12.00;5.57;;;24.30;39.90;;;;;;6263003;27;80098;-64
2022/04/30 08:38:59;;;;;;;8.63;5.47;;;24.30;39.70;;;;;;6264423;27;80392;-63
2022/04/30 08:41:59;;;;;;;12.20;5.72;;;24.40;39.90;;;;;;6270823;27;81098;-64
2022/04/30 08:45:00;;;;;;;11.63;5.68;;;24.40;39.50;;;;;;6263903;27;80326;-65
2022/04/30 08:48:01;;;;;;;9.52;5.65;;;24.40;39.60;;;;;;6268053;27;80612;-64
2022/04/30 08:51:02;;;;;;;10.55;5.72;;;24.40;39.50;;;;;;6259080;27;80822;-63
2022/04/30 08:54:03;;;;;;;9.43;5.20;;;24.40;39.40;;;;;;6260241;27;80282;-64
2022/04/30 08:57:03;;;;;;;9.82;5.00;;;24.40;39.50;;;;;;6269169;27;80557;-62
2022/04/30 09:00:04;;;;;;;11.48;5.22;;;24.50;39.40;;;;;;6285876;27;81055;-63
2022/04/30 09:03:05;;;;;;;10.05;5.25;;;24.40;38.90;;;;;;6284457;27;80429;-63
2022/04/30 09:06:06;;;;;;;8.65;4.55;;;24.50;38.80;;;;;;6260723;27;80960;-65
2022/04/30 09:09:07;;;;;;;10.85;5.63;;;24.40;38.50;;;;;;6259451;27;80547;-65
2022/04/30 09:12:08;;;;;;;13.18;5.50;;;24.40;38.00;;;;;;6273877;27;81160;-66
2022/04/30 09:15:08;;;;;;;8.80;5.22;;;24.40;37.50;;;;;;6283321;27;80590;-68
2022/04/30 09:18:09;;;;;;;8.95;5.50;;;24.30;37.00;;;;;;6274732;27;80353;-68
2022/04/30 09:21:10;;;;;;;9.23;5.28;;;24.30;36.90;;;;;;6258455;27;80397;-64
2022/04/30 09:24:13;;;;;;;9.20;4.88;;;24.30;36.50;;;;;;6259574;27;80429;-64
2022/04/30 09:27:14;;;;;;;10.35;4.45;;;24.30;36.90;;;;;;6270091;27;81441;-63
2022/04/30 09:30:14;;;;;;;10.23;4.68;;;24.30;37.10;;;;;;6284382;27;80866;-63
2022/04/30 09:33:15;;;;;;;8.90;4.88;;;24.30;36.30;;;;;;6284513;27;80918;-64
2022/04/30 09:39:35;;;;;;;9.68;4.40;;;24.20;34.50;;;;;;6282860;27;82398;-71
2022/04/30 09:42:38;;;;;;;8.65;4.22;;;24.20;34.60;;;;;;6270336;27;80449;-69
2022/04/30 09:45:38;;;;;;;6.90;4.05;;;24.10;34.20;;;;;;6258845;27;80535;-63
2022/04/30 09:55:17;;;;;;;9.63;4.50;;;24.10;33.30;;;;;;6258115;27;80185;-63
2022/04/30 09:58:20;;;;;;;9.65;4.78;;;24.00;32.70;;;;;;6258471;27;80406;-63
2022/04/30 10:01:20;;;;;;;8.63;4.88;;;24.00;33.00;;;;;;6258547;27;80319;-63
2022/04/30 10:04:21;;;;;;;7.45;4.53;;;24.10;33.30;;;;;;6258678;27;81673;-63
2022/04/30 10:07:22;;;;;;;16.92;4.00;;;24.10;33.40;;;;;;6259238;27;80442;-66
2022/04/30 10:10:22;;;;;;;6.80;4.07;;;24.10;33.50;;;;;;6276079;27;81133;-64
2022/04/30 10:13:23;;;;;;;6.95;4.60;;;24.10;33.80;;;;;;6258265;27;80697;-65
2022/04/30 10:16:23;;;;;;;9.10;4.28;;;24.10;33.90;;;;;;6257964;27;80388;-64
2022/04/30 10:19:24;;;;;;;6.22;3.97;;;24.20;34.00;;;;;;6257878;27;80411;-63
2022/04/30 10:22:24;;;;;;;7.70;3.60;;;24.20;34.30;;;;;;6257865;27;84781;-62
2022/04/30 10:25:25;;;;;;;8.20;3.38;;;24.20;34.50;;;;;;6258173;27;81655;-61
2022/04/30 10:28:25;;;;;;;6.30;3.33;;;24.30;35.20;;;;;;6258075;27;80956;-62
2022/04/30 10:31:26;;;;;;;5.05;3.47;;;24.30;34.90;;;;;;6269918;27;82217;-62
2022/04/30 10:34:26;;;;;;;8.30;3.15;;;24.30;34.90;;;;;;6282883;27;80598;-64
2022/04/30 10:37:27;;;;;;;4.85;3.13;;;24.30;34.60;;;;;;6282890;27;80739;-64
2022/04/30 10:40:27;;;;;;;7.22;3.08;;;24.30;34.80;;;;;;6282873;27;81599;-64
2022/04/30 10:43:32;;;;;;;6.80;3.13;;;24.30;34.70;;;;;;6283050;27;80450;-61
2022/04/30 10:46:32;;;;;;;4.68;3.20;;;24.30;35.10;;;;;;6282701;27;80578;-62
2022/04/30 10:49:33;;;;;;;8.02;3.17;;;24.30;35.10;;;;;;6274425;27;80228;-62
2022/04/30 10:52:33;;;;;;;4.03;3.00;;;24.30;35.30;;;;;;6261018;27;80382;-61
2022/04/30 10:55:34;;;;;;;8.18;3.65;;;24.40;35.20;;;;;;6263702;27;82883;-70
2022/04/30 10:58:35;;;;;;;12.50;4.15;;;24.50;37.20;;;;;;6257748;27;81502;-64
2022/04/30 11:01:36;;;;;;;8.48;3.67;;;24.50;37.40;;;;;;6270393;27;80395;-67
2022/04/30 11:04:36;;;;;;;10.77;4.00;;;24.60;37.20;;;;;;6283054;27;80552;-65
2022/04/30 11:07:37;;;;;;;8.88;4.57;;;24.60;37.70;;;;;;6270223;27;80969;-62
2022/04/30 11:10:37;;;;;;;5.50;3.80;;;24.60;37.00;;;;;;6286422;27;80916;-60
2022/04/30 11:13:38;;;;;;;10.45;4.97;;;24.60;36.60;;;;;;6283194;27;80258;-62
2022/04/30 11:16:38;;;;;;;9.75;4.85;;;24.60;36.30;;;;;;6272179;27;80954;-63
2022/04/30 11:19:39;;;;;;;11.95;5.43;;;24.60;36.50;;;;;;6263791;27;87751;-62
2022/04/30 11:22:39;;;;;;;9.63;5.03;;;24.60;35.40;;;;;;6270528;27;80240;-63
2022/04/30 11:25:40;;;;;;;8.80;5.07;;;24.60;35.30;;;;;;6284419;27;80397;-63
2022/04/30 11:28:41;;;;;;;10.02;5.32;;;24.60;35.10;;;;;;6260651;27;81796;-63
2022/04/30 11:31:41;;;;;;;10.00;7.18;;;24.60;34.60;;;;;;6261414;27;80352;-63
2022/04/30 11:34:42;;;;;;;14.57;8.50;;;24.50;33.50;;;;;;6277364;27;81790;-63
2022/04/30 11:37:43;;;;;;;13.25;6.80;;;24.50;33.70;;;;;;6277640;27;80363;-62
2022/04/30 11:40:43;;;;;;;8.55;5.05;;;24.50;33.30;;;;;;6266149;27;81464;-64
2022/04/30 11:43:44;;;;;;;10.25;6.00;;;24.40;32.60;;;;;;6282078;27;81998;-62
2022/04/30 11:46:44;;;;;;;7.65;5.15;;;24.40;33.40;;;;;;6266393;27;80306;-62
2022/04/30 11:49:45;;;;;;;10.77;6.55;;;24.50;32.60;;;;;;6265435;27;80640;-62
2022/04/30 11:52:45;;;;;;;9.80;7.22;;;24.50;32.60;;;;;;6271291;27;81498;-62
2022/04/30 11:55:46;;;;;;;11.27;7.05;;;24.40;32.60;;;;;;6264628;27;81600;-62
2022/04/30 11:58:46;;;;;;;12.55;7.32;;;24.40;32.70;;;;;;6285774;27;80780;-61
2022/04/30 12:01:47;;;;;;;11.27;6.45;;;24.50;32.60;;;;;;6280541;27;80752;-63
2022/04/30 12:04:49;;;;;;;11.35;5.90;;;24.50;32.40;;;;;;6260840;27;80309;-62
2022/04/30 12:07:49;;;;;;;7.40;4.53;;;24.50;32.70;;;;;;6265136;27;81447;-61
2022/04/30 12:10:50;;;;;;;10.55;5.00;;;24.50;33.00;;;;;;6263643;27;80308;-63
2022/04/30 12:13:50;;;;;;;9.35;4.32;;;24.50;33.10;;;;;;6260827;27;81021;-63
2022/04/30 12:16:51;;;;;;;12.13;5.18;;;24.50;33.20;;;;;;6259931;27;82405;-63
2022/04/30 12:26:31;;;;;;;8.07;4.10;;;24.60;33.90;;;;;;6301657;27;80502;-63
2022/04/30 12:29:35;;;;;;;5.97;3.60;;;24.60;34.10;;;;;;6260050;27;80340;-63
2022/04/30 12:32:36;;;;;;;12.02;4.32;;;24.60;34.10;;;;;;6259727;27;80899;-63
2022/04/30 12:35:40;;;;;;;6.43;3.92;;;24.60;34.00;;;;;;6259787;27;80730;-63
2022/04/30 12:38:40;;;;;;;6.28;3.72;;;24.60;34.10;;;;;;6259104;27;80180;-63
2022/04/30 12:41:41;;;;;;;8.23;4.03;;;24.60;33.70;;;;;;6262843;27;81764;-63
2022/04/30 12:44:41;;;;;;;9.48;4.53;;;24.50;33.20;;;;;;6271349;27;82353;-63
2022/04/30 12:47:42;;;;;;;11.93;4.38;;;24.50;32.50;;;;;;6284720;27;81425;-63
2022/04/30 12:50:43;;;;;;;9.68;3.63;;;24.40;32.80;;;;;;6284946;27;80485;-63
2022/04/30 12:53:43;;;;;;;7.20;3.65;;;24.40;33.20;;;;;;6284488;27;81423;-63
2022/04/30 12:56:44;;;;;;;7.65;3.55;;;24.50;33.50;;;;;;6284725;27;81387;-62
2022/04/30 12:59:44;;;;;;;5.97;3.20;;;24.60;33.60;;;;;;6284401;27;81477;-64
2022/04/30 13:02:45;;;;;;;8.68;4.10;;;24.60;34.10;;;;;;6269609;27;81452;-65
2022/04/30 13:05:46;;;;;;;6.40;3.33;;;24.60;33.70;;;;;;6277927;27;81709;-64
2022/04/30 13:15:24;;;;;;;4.68;3.08;;;24.50;33.20;;;;;;6263709;27;80067;-63
2022/04/30 13:18:25;;;;;;;6.13;3.45;;;24.50;33.40;;;;;;6283434;27;80392;-61
2022/04/30 13:21:26;;;;;;;8.32;3.90;;;24.50;33.30;;;;;;6284740;27;80315;-64
2022/04/30 13:24:26;;;;;;;6.93;3.05;;;24.50;33.30;;;;;;6284606;27;80806;-61
2022/04/30 13:27:27;;;;;;;5.03;3.35;;;24.50;33.60;;;;;;6273815;27;80597;-63
2022/04/30 13:30:30;;;;;;;7.00;3.95;;;24.60;33.80;;;;;;6281995;27;80316;-63
2022/04/30 13:33:31;;;;;;;4.78;3.15;;;24.60;34.00;;;;;;6284376;27;80314;-61
2022/04/30 13:36:31;;;;;;;5.82;3.60;;;24.60;34.10;;;;;;6284164;27;80326;-61
2022/04/30 13:39:32;;;;;;;4.88;3.20;;;24.60;33.80;;;;;;6283347;27;81527;-63
2022/04/30 13:42:33;;;;;;;4.72;3.35;;;24.60;34.10;;;;;;6281912;27;80679;-64
2022/04/30 13:45:33;;;;;;;6.70;4.00;;;24.60;34.10;;;;;;6283698;27;80498;-63
2022/04/30 13:48:34;;;;;;;6.45;3.45;;;24.60;33.90;;;;;;6283684;27;80410;-63
2022/04/30 13:51:36;;;;;;;8.57;3.75;;;24.60;34.20;;;;;;6283820;27;80363;-62
2022/04/30 13:54:36;;;;;;;6.75;4.10;;;24.50;34.30;;;;;;6263907;27;80567;-64
2022/04/30 13:57:37;;;;;;;8.80;3.28;;;24.50;34.40;;;;;;6257785;27;80611;-63
2022/04/30 14:00:37;;;;;;;13.95;4.40;;;24.50;34.50;;;;;;6257373;27;80206;-62
2022/04/30 14:03:38;;;;;;;5.72;3.58;;;24.50;34.50;;;;;;6260703;27;81965;-63
2022/04/30 14:06:38;;;;;;;5.68;3.55;;;24.50;34.70;;;;;;6263192;27;80370;-64
2022/04/30 14:09:39;;;;;;;9.38;3.90;;;24.60;34.70;;;;;;6255633;27;80620;-65
2022/04/30 14:12:39;;;;;;;11.25;4.25;;;24.50;34.20;;;;;;6256764;27;81949;-63
2022/04/30 14:15:40;;;;;;;8.52;4.30;;;24.50;33.20;;;;;;6262374;27;80566;-64
2022/04/30 14:18:40;;;;;;;6.63;3.78;;;24.40;33.30;;;;;;6283373;27;80280;-63
2022/04/30 14:21:41;;;;;;;9.00;4.10;;;24.40;33.50;;;;;;6282691;27;81417;-64
2022/04/30 14:24:41;;;;;;;6.70;3.97;;;24.40;33.70;;;;;;6283391;27;81272;-63
2022/04/30 14:27:42;;;;;;;6.68;3.28;;;24.40;33.70;;;;;;6263539;27;80591;-62
2022/04/30 14:30:43;;;;;;;7.65;3.65;;;24.40;33.70;;;;;;6257696;27;80489;-61
2022/04/30 14:33:43;;;;;;;5.35;3.70;;;24.40;33.60;;;;;;6259101;27;80995;-63
2022/04/30 14:36:44;;;;;;;5.70;3.30;;;24.40;33.60;;;;;;6258732;27;82766;-61
2022/04/30 14:39:44;;;;;;;10.45;4.47;;;24.40;33.50;;;;;;6260629;27;80501;-61
2022/04/30 14:42:45;;;;;;;9.80;3.85;;;24.40;33.60;;;;;;6260572;27;80824;-63
2022/04/30 14:45:46;;;;;;;5.53;3.92;;;24.40;33.60;;;;;;6283452;27;80441;-61
2022/04/30 14:48:46;;;;;;;5.57;3.75;;;24.40;33.80;;;;;;6264231;27;80571;-61
2022/04/30 14:51:47;;;;;;;11.18;4.53;;;24.40;33.80;;;;;;6276753;27;80314;-61
2022/04/30 14:54:48;;;;;;;7.28;3.85;;;24.30;34.00;;;;;;6257795;27;80855;-64
2022/04/30 14:57:48;;;;;;;9.95;4.72;;;24.40;33.90;;;;;;6257475;27;81357;-65
2022/04/30 15:00:49;;;;;;;7.68;3.97;;;24.40;33.90;;;;;;6257359;27;80344;-62
2022/04/30 15:03:49;;;;;;;7.45;4.18;;;24.40;33.90;;;;;;6259463;27;81899;-61
2022/04/30 15:06:51;;;;;;;8.02;3.63;;;24.40;33.80;;;;;;6282761;27;80686;-61
2022/04/30 15:09:52;;;;;;;9.20;3.90;;;24.40;33.90;;;;;;6280713;27;81094;-61
2022/04/30 15:12:52;;;;;;;5.45;3.90;;;24.30;33.90;;;;;;6282243;27;80212;-61
2022/04/30 15:15:53;;;;;;;9.20;4.53;;;24.40;34.00;;;;;;6279033;27;80264;-62
2022/04/30 15:18:54;;;;;;;7.25;3.80;;;24.40;34.10;;;;;;6265897;27;80628;-62
2022/04/30 15:21:54;;;;;;;9.45;4.38;;;24.30;34.00;;;;;;6281915;27;80149;-62
2022/04/30 15:24:55;;;;;;;12.63;4.32;;;24.30;34.10;;;;;;6276052;27;80904;-62
2022/04/30 15:27:55;;;;;;;8.13;3.85;;;24.30;34.30;;;;;;6263922;27;80954;-61
2022/04/30 15:30:56;;;;;;;8.13;4.20;;;24.30;34.90;;;;;;6260099;27;80461;-61
2022/04/30 15:33:57;;;;;;;8.00;4.20;;;24.30;35.20;;;;;;6267489;27;80854;-61
2022/04/30 15:36:57;;;;;;;5.95;3.80;;;24.30;35.40;;;;;;6266886;27;80398;-61
2022/04/30 15:39:58;;;;;;;6.15;3.63;;;24.30;35.80;;;;;;6264251;27;80420;-61
2022/04/30 15:42:58;;;;;;;8.18;3.40;;;24.30;35.50;;;;;;6265654;27;80401;-63
2022/04/30 15:45:59;;;;;;;9.20;4.18;;;24.30;35.50;;;;;;6265472;27;81024;-61
2022/04/30 15:52:19;;;;;;;6.32;3.35;;;24.40;35.80;;;;;;6268173;27;80215;-62
2022/04/30 15:55:19;;;;;;;6.22;3.60;;;24.30;35.50;;;;;;6283309;27;81281;-62
2022/04/30 15:58:19;;;;;;;6.65;3.80;;;24.40;35.60;;;;;;6259203;28;86914;-62
2022/04/30 16:01:20;;;;;;;6.85;3.35;;;24.30;35.80;;;;;;6261262;27;81624;-65
2022/04/30 16:04:21;;;;;;;8.45;4.13;;;24.30;35.70;;;;;;6267868;27;80505;-63
2022/04/30 16:07:22;;;;;;;9.57;3.78;;;24.40;35.70;;;;;;6262403;27;80842;-61
2022/04/30 16:10:22;;;;;;;6.53;3.17;;;24.40;35.80;;;;;;6260539;27;80605;-62
2022/04/30 16:13:23;;;;;;;7.55;3.63;;;24.40;36.30;;;;;;6283734;27;80359;-61
2022/04/30 16:16:24;;;;;;;7.47;3.28;;;24.40;36.20;;;;;;6285434;27;82640;-63
2022/04/30 16:19:25;;;;;;;7.38;3.42;;;24.30;36.10;;;;;;6281734;27;81477;-63
2022/04/30 16:22:25;;;;;;;6.65;3.65;;;24.40;36.10;;;;;;6280160;27;86187;-63
2022/04/30 16:25:26;;;;;;;6.47;4.03;;;24.40;36.10;;;;;;6278888;27;81592;-65
2022/04/30 16:28:26;;;;;;;5.85;3.72;;;24.30;35.90;;;;;;6280776;27;80818;-63
2022/04/30 16:31:27;;;;;;;9.55;3.70;;;24.30;35.40;;;;;;6274761;27;80969;-62